createdAt,value
2023-04-02T00:00:10.803Z,100953.94
2023-04-02T00:03:04.724Z,100968.53
2023-04-02T00:05:35.724Z,100963.03
2023-04-02T00:08:19.263Z,100969.03
2023-04-02T00:10:52.129Z,100970.88
2023-04-02T00:13:18.957Z,100974.22
2023-04-02T00:15:51.385Z,100969.34
2023-04-02T00:18:22.397Z,100972.28
2023-04-02T00:20:50.977Z,100981.56
2023-04-02T00:23:17.783Z,100976.53
2023-04-02T00:25:45.675Z,100982.09
2023-04-02T00:28:15.384Z,100985.34
2023-04-02T00:30:50.871Z,100983.03
2023-04-02T00:33:20.452Z,100987.50
2023-04-02T00:35:48.968Z,100994.16
2023-04-02T00:38:23.613Z,100994.28
2023-04-02T00:40:52.093Z,101000.56
2023-04-02T00:43:21.165Z,101002.09
2023-04-02T00:45:51.247Z,101007.47
2023-04-02T00:48:33.408Z,101009.13
2023-04-02T00:51:08.719Z,101015.63
2023-04-02T00:53:37.474Z,101012.56
2023-04-02T00:56:16.910Z,101015.53
2023-04-02T00:58:44.842Z,101024.53
2023-04-02T01:01:19.568Z,101024.06
2023-04-02T01:03:58.481Z,101032.03
2023-04-02T01:06:31.338Z,101029.84
2023-04-02T01:09:13.833Z,101041.47
2023-04-02T01:11:46.640Z,101037.31
2023-04-02T01:14:34.664Z,101042.13
2023-04-02T01:17:15.636Z,101043.03
2023-04-02T01:19:54.630Z,101048.94
2023-04-02T01:22:21.501Z,101048.44
2023-04-02T01:24:48.882Z,101056.56
2023-04-02T01:27:26.835Z,101058.44
2023-04-02T01:29:58.400Z,101056.47
2023-04-02T01:32:28.881Z,101053.72
2023-04-02T01:34:56.990Z,101043.34
2023-04-02T01:38:18.609Z,101051.50
2023-04-02T01:41:12.410Z,101052.75
2023-04-02T01:43:54.587Z,101054.13
2023-04-02T01:46:33.291Z,101058.75
2023-04-02T01:49:12.374Z,101054.91
2023-04-02T01:51:43.344Z,101059.75
2023-04-02T01:54:11.550Z,101061.28
2023-04-02T01:56:38.569Z,101062.41
2023-04-02T01:59:06.112Z,101074.97
2023-04-02T02:01:36.974Z,101072.72
2023-04-02T02:04:05.185Z,101080.06
2023-04-02T02:06:32.055Z,101088.88
2023-04-02T02:09:03.563Z,101090.72
2023-04-02T02:11:33.198Z,101097.34
2023-04-02T02:14:05.005Z,101094.03
2023-04-02T02:16:34.046Z,101090.53
2023-04-02T02:19:05.122Z,101094.59
2023-04-02T02:21:47.669Z,101095.25
2023-04-02T02:24:25.991Z,101095.34
2023-04-02T02:27:23.739Z,101097.34
2023-04-02T02:30:05.191Z,101105.88
2023-04-02T02:32:33.745Z,101109.72
2023-04-02T02:35:21.082Z,101115.72
2023-04-02T02:37:57.937Z,101109.88
2023-04-02T02:40:34.446Z,101108.06
2023-04-02T02:43:03.842Z,101117.00
2023-04-02T02:45:35.803Z,101119.31
2023-04-02T02:48:03.998Z,101112.47
2023-04-02T02:50:32.376Z,101117.50
2023-04-02T02:53:05.785Z,101123.31
2023-04-02T02:55:34.674Z,101125.44
2023-04-02T02:58:27.532Z,101127.50
2023-04-02T03:01:14.927Z,101132.34
2023-04-02T03:03:44.985Z,101135.66
2023-04-02T03:06:20.947Z,101140.75
2023-04-02T03:09:12.398Z,101144.16
2023-04-02T03:11:44.619Z,101147.69
2023-04-02T03:14:22.074Z,101155.31
2023-04-02T03:16:51.709Z,101164.13
2023-04-02T03:19:47.593Z,101160.78
2023-04-02T03:22:32.200Z,101167.59
2023-04-02T03:25:26.840Z,101172.97
2023-04-02T03:28:05.471Z,101172.63
2023-04-02T03:30:45.402Z,101178.28
2023-04-02T03:33:28.131Z,101181.75
2023-04-02T03:36:13.899Z,101182.09
2023-04-02T03:38:47.456Z,101187.91
2023-04-02T03:41:45.393Z,101188.25
2023-04-02T03:44:39.705Z,101196.56
2023-04-02T03:47:25.547Z,101201.25
2023-04-02T03:50:05.312Z,101200.59
2023-04-02T03:52:35.774Z,101206.25
2023-04-02T03:55:16.014Z,101207.41
2023-04-02T03:58:01.369Z,101215.91
2023-04-02T04:00:39.576Z,101214.06
2023-04-02T04:03:19.694Z,101208.91
2023-04-02T04:05:54.695Z,101210.72
2023-04-02T04:08:26.386Z,101213.75
2023-04-02T04:10:57.256Z,101211.56
2023-04-02T04:13:57.052Z,101222.25
2023-04-02T04:16:34.453Z,101226.41
2023-04-02T04:19:08.180Z,101214.59
2023-04-02T04:21:37.935Z,101214.25
2023-04-02T04:24:20.420Z,101210.25
2023-04-02T04:26:56.885Z,101216.59
2023-04-02T04:29:38.206Z,101225.75
2023-04-02T04:32:16.730Z,101221.56
2023-04-02T04:34:51.582Z,101222.06
2023-04-02T04:37:33.614Z,101228.22
2023-04-02T04:40:07.654Z,101226.91
2023-04-02T04:42:36.815Z,101239.91
2023-04-02T04:45:21.156Z,101242.22
2023-04-02T04:47:54.095Z,101234.88
2023-04-02T04:50:23.998Z,101242.38
2023-04-02T04:52:50.940Z,101244.72
2023-04-02T04:55:42.814Z,101244.53
2023-04-02T04:58:28.987Z,101254.22
2023-04-02T05:01:11.535Z,101249.56
2023-04-02T05:04:12.885Z,101256.53
2023-04-02T05:06:49.939Z,101263.88
2023-04-02T05:09:42.079Z,101262.03
2023-04-02T05:12:22.437Z,101263.56
2023-04-02T05:15:12.010Z,101271.53
2023-04-02T05:18:10.761Z,101270.19
2023-04-02T05:20:49.377Z,101275.38
2023-04-02T05:23:31.025Z,101275.53
2023-04-02T05:26:13.662Z,101283.19
2023-04-02T05:29:11.818Z,101288.03
2023-04-02T05:31:54.611Z,101284.00
2023-04-02T05:34:29.632Z,101285.53
2023-04-02T05:36:57.061Z,101296.84
2023-04-02T05:39:27.199Z,101288.34
2023-04-02T05:42:11.259Z,101298.00
2023-04-02T05:45:08.983Z,101293.34
2023-04-02T05:47:41.143Z,101297.84
2023-04-02T05:50:22.133Z,101303.50
2023-04-02T05:53:23.660Z,101312.34
2023-04-02T05:55:58.656Z,101318.84
2023-04-02T05:58:50.801Z,101322.66
2023-04-02T06:01:25.695Z,101328.00
2023-04-02T06:04:29.929Z,101333.66
2023-04-02T06:07:17.025Z,101335.50
2023-04-02T06:10:08.029Z,101338.84
2023-04-02T06:12:44.634Z,101339.50
2023-04-02T06:15:17.987Z,101339.50
2023-04-02T06:18:09.146Z,101334.34
2023-04-02T06:20:37.523Z,101348.00
2023-04-02T06:23:10.712Z,101347.16
2023-04-02T06:25:41.094Z,101348.00
2023-04-02T06:28:15.239Z,101351.16
2023-04-02T06:30:49.806Z,101344.66
2023-04-02T06:33:17.927Z,101347.50
2023-04-02T06:35:47.621Z,101350.81
2023-04-02T06:38:25.876Z,101355.47
2023-04-02T06:40:56.961Z,101348.31
2023-04-02T06:43:56.958Z,101358.94
2023-04-02T06:46:57.992Z,101362.97
2023-04-02T06:49:57.893Z,101363.94
2023-04-02T06:52:32.342Z,101369.78
2023-04-02T06:55:07.558Z,101374.47
2023-04-02T06:57:35.918Z,101371.13
2023-04-02T07:00:03.815Z,101373.47
2023-04-02T07:02:38.303Z,101381.47
2023-04-02T07:05:09.433Z,101394.13
2023-04-02T07:07:40.133Z,101387.28
2023-04-02T07:10:10.376Z,101390.44
2023-04-02T07:12:37.146Z,101405.81
2023-04-02T07:15:04.585Z,101403.31
2023-04-02T07:17:31.982Z,101399.94
2023-04-02T07:19:59.589Z,101414.31
2023-04-02T07:22:26.984Z,101417.44
2023-04-02T07:24:58.836Z,101416.31
2023-04-02T07:27:26.306Z,101414.47
2023-04-02T07:29:53.146Z,101416.63
2023-04-02T07:32:20.077Z,101413.81
2023-04-02T07:34:47.326Z,101408.97
2023-04-02T07:37:14.924Z,101411.44
2023-04-02T07:39:42.395Z,101414.25
2023-04-02T07:42:09.676Z,101416.25
2023-04-02T07:44:36.704Z,101422.78
2023-04-02T07:47:03.798Z,101422.91
2023-04-02T07:49:30.770Z,101430.25
2023-04-02T07:51:57.637Z,101441.59
2023-04-02T07:54:24.413Z,101438.47
2023-04-02T07:56:51.298Z,101440.47
2023-04-02T07:59:18.435Z,101446.41
2023-04-02T08:01:45.347Z,101441.44
2023-04-02T08:04:20.787Z,101447.84
2023-04-02T08:06:48.940Z,101441.03
2023-04-02T08:09:16.979Z,101431.88
2023-04-02T08:11:44.147Z,101435.19
2023-04-02T08:14:11.512Z,101444.94
2023-04-02T08:16:49.509Z,101455.31
2023-04-02T08:19:16.842Z,101461.31
2023-04-02T08:21:47.000Z,101459.59
2023-04-02T08:24:13.921Z,101457.91
2023-04-02T08:26:41.967Z,101456.59
2023-04-02T08:29:09.807Z,101459.09
2023-04-02T08:31:36.721Z,101465.22
2023-04-02T08:34:03.901Z,101468.03
2023-04-02T08:36:34.140Z,101471.66
2023-04-02T08:39:01.221Z,101470.09
2023-04-02T08:41:28.400Z,101477.34
2023-04-02T08:43:59.704Z,101478.66
2023-04-02T08:46:31.243Z,101477.81
2023-04-02T08:51:41.133Z,101484.03
2023-04-02T08:54:20.569Z,101478.00
2023-04-02T08:56:53.800Z,101484.03
2023-04-02T08:59:35.680Z,101483.66
2023-04-02T09:02:05.073Z,101486.75
2023-04-02T09:04:33.029Z,101486.28
2023-04-02T09:07:01.052Z,101483.75
2023-04-02T09:09:28.248Z,101496.34
2023-04-02T09:12:00.902Z,101501.63
2023-04-02T09:14:42.146Z,101493.88
2023-04-02T09:17:21.823Z,101502.97
2023-04-02T09:20:19.286Z,101498.56
2023-04-02T09:22:48.583Z,101511.13
2023-04-02T09:25:21.094Z,101510.28
2023-04-02T09:27:50.194Z,101508.88
2023-04-02T09:30:25.503Z,101505.59
2023-04-02T09:32:54.768Z,101505.59
2023-04-02T09:35:27.148Z,101519.34
2023-04-02T09:38:12.718Z,101517.63
2023-04-02T09:40:59.687Z,101521.06
2023-04-02T09:43:31.323Z,101524.84
2023-04-02T09:46:04.243Z,101536.75
2023-04-02T09:48:33.662Z,101541.63
2023-04-02T09:51:08.237Z,101543.94
2023-04-02T09:53:39.416Z,101550.00
2023-04-02T09:56:09.765Z,101543.69
2023-04-02T09:58:36.552Z,101551.53
2023-04-02T10:01:03.575Z,101544.47
2023-04-02T10:03:33.214Z,101550.66
2023-04-02T10:06:13.424Z,101555.66
2023-04-02T10:08:42.777Z,101566.72
2023-04-02T10:11:33.640Z,101566.97
2023-04-02T10:14:37.962Z,101569.91
2023-04-02T10:17:10.236Z,101567.63
2023-04-02T10:19:54.084Z,101569.44
2023-04-02T10:22:22.252Z,101576.75
2023-04-02T10:24:50.085Z,101571.38
2023-04-02T10:27:29.675Z,101581.84
2023-04-02T10:30:11.973Z,101581.16
2023-04-02T10:32:46.879Z,101584.91
2023-04-02T10:35:16.731Z,101591.19
2023-04-02T10:37:47.201Z,101597.00
2023-04-02T10:40:35.692Z,101601.44
2023-04-02T10:43:20.905Z,101611.91
2023-04-02T10:45:56.923Z,101598.41
2023-04-02T10:48:35.818Z,101606.31
2023-04-02T10:51:32.357Z,101606.69
2023-04-02T10:54:28.076Z,101610.78
2023-04-02T10:56:59.409Z,101616.31
2023-04-02T10:59:35.194Z,101603.28
2023-04-02T11:02:06.935Z,101611.88
2023-04-02T11:04:45.146Z,101614.84
2023-04-02T11:07:19.347Z,101612.97
2023-04-02T11:09:48.302Z,101620.66
2023-04-02T11:12:25.341Z,101611.25
2023-04-02T11:14:52.826Z,101621.09
2023-04-02T11:17:20.656Z,101623.88
2023-04-02T11:19:47.638Z,101628.78
2023-04-02T11:22:22.952Z,101627.03
2023-04-02T11:24:51.526Z,101632.94
2023-04-02T11:27:27.473Z,101629.00
2023-04-02T11:30:16.025Z,101632.56
2023-04-02T11:32:49.726Z,101632.66
2023-04-02T11:35:32.031Z,101630.00
2023-04-02T11:38:11.969Z,101633.81
2023-04-02T11:40:44.709Z,101634.50
2023-04-02T11:43:33.244Z,101641.28
2023-04-02T11:46:16.633Z,101634.97
2023-04-02T11:48:43.796Z,101641.44
2023-04-02T11:51:36.211Z,101641.16
2023-04-02T11:54:04.376Z,101637.59
2023-04-02T11:56:58.801Z,101644.59
2023-04-02T11:59:35.394Z,101643.53
2023-04-02T12:02:21.999Z,101640.66
2023-04-02T12:05:14.690Z,101641.78
2023-04-02T12:07:56.905Z,101635.38
2023-04-02T12:10:34.496Z,101645.84
2023-04-02T12:13:01.538Z,101651.59
2023-04-02T12:15:42.083Z,101646.75
2023-04-02T12:18:19.920Z,101644.75
2023-04-02T12:20:56.082Z,101645.78
2023-04-02T12:23:24.322Z,101652.69
2023-04-02T12:26:03.582Z,101648.50
2023-04-02T12:28:33.887Z,101648.91
2023-04-02T12:31:09.656Z,101655.69
2023-04-02T12:33:38.064Z,101657.97
2023-04-02T12:36:18.323Z,101662.50
2023-04-02T12:38:46.937Z,101658.97
2023-04-02T12:41:32.156Z,101665.72
2023-04-02T12:44:06.414Z,101660.59
2023-04-02T12:46:35.112Z,101666.59
2023-04-02T12:49:07.382Z,101665.38
2023-04-02T12:51:36.168Z,101665.81
2023-04-02T12:54:03.272Z,101664.94
2023-04-02T12:56:30.437Z,101670.75
2023-04-02T12:58:59.275Z,101665.94
2023-04-02T13:01:28.371Z,101681.59
2023-04-02T13:04:12.533Z,101675.03
2023-04-02T13:06:41.296Z,101666.97
2023-04-02T13:09:28.801Z,101678.03
2023-04-02T13:11:56.182Z,101668.16
2023-04-02T13:14:24.624Z,101666.31
2023-04-02T13:16:51.597Z,101667.97
2023-04-02T13:19:31.856Z,101676.25
2023-04-02T13:22:01.060Z,101674.19
2023-04-02T13:24:29.896Z,101677.97
2023-04-02T13:26:59.846Z,101675.09
2023-04-02T13:29:30.947Z,101684.63
2023-04-02T13:32:01.191Z,101681.59
2023-04-02T13:34:28.557Z,101688.47
2023-04-02T13:36:55.571Z,101682.16
2023-04-02T13:39:22.502Z,101691.63
2023-04-02T13:41:56.811Z,101685.88
2023-04-02T13:44:31.377Z,101691.66
2023-04-02T13:46:58.422Z,101681.59
2023-04-02T13:49:26.307Z,101694.63
2023-04-02T13:51:58.017Z,101686.00
2023-04-02T13:54:27.966Z,101688.63
2023-04-02T13:56:56.014Z,101683.94
2023-04-02T13:59:23.520Z,101675.81
2023-04-02T14:01:52.492Z,101684.88
2023-04-02T14:04:25.315Z,101677.38
2023-04-02T14:07:33.266Z,101670.94
2023-04-02T14:10:01.721Z,101669.25
2023-04-02T14:12:35.793Z,101672.28
2023-04-02T14:15:17.348Z,101671.31
2023-04-02T14:17:54.064Z,101668.03
2023-04-02T14:20:32.895Z,101667.53
2023-04-02T14:23:12.030Z,101677.13
2023-04-02T14:26:07.588Z,101664.88
2023-04-02T14:28:40.197Z,101658.72
2023-04-02T14:31:40.605Z,101661.09
2023-04-02T14:34:34.872Z,101667.75
2023-04-02T14:37:18.276Z,101674.81
2023-04-02T14:39:45.011Z,101671.56
2023-04-02T14:42:41.682Z,101676.25
2023-04-02T14:45:11.774Z,101668.47
2023-04-02T14:47:46.716Z,101674.47
2023-04-02T14:50:28.122Z,101678.06
2023-04-02T14:52:58.741Z,101677.91
2023-04-02T14:55:33.020Z,101675.53
2023-04-02T14:58:02.349Z,101669.38
2023-04-02T15:00:36.851Z,101666.38
2023-04-02T15:03:24.963Z,101669.56
2023-04-02T15:05:56.638Z,101670.66
2023-04-02T15:08:29.394Z,101666.84
2023-04-02T15:11:05.742Z,101677.66
2023-04-02T15:13:41.488Z,101676.63
2023-04-02T15:16:14.429Z,101686.84
2023-04-02T15:18:41.364Z,101682.75
2023-04-02T15:21:20.142Z,101681.09
2023-04-02T15:24:19.447Z,101692.06
2023-04-02T15:27:05.471Z,101685.06
2023-04-02T15:29:55.302Z,101699.53
2023-04-02T15:32:34.475Z,101688.00
2023-04-02T15:35:22.640Z,101690.69
2023-04-02T15:38:01.883Z,101697.94
2023-04-02T15:40:54.695Z,101695.41
2023-04-02T15:43:53.755Z,101704.22
2023-04-02T15:46:42.154Z,101703.25
2023-04-02T15:49:27.687Z,101705.66
2023-04-02T15:52:06.786Z,101703.84
2023-04-02T15:54:36.699Z,101704.59
2023-04-02T15:57:18.379Z,101717.63
2023-04-02T15:59:53.696Z,101713.06
2023-04-02T16:02:29.969Z,101707.91
2023-04-02T16:05:15.335Z,101711.44
2023-04-02T16:08:05.045Z,101712.84
2023-04-02T16:10:43.037Z,101715.56
2023-04-02T16:13:37.085Z,101711.34
2023-04-02T16:16:14.788Z,101712.22
2023-04-02T16:18:58.590Z,101716.03
2023-04-02T16:21:29.915Z,101713.69
2023-04-02T16:23:56.752Z,101713.88
2023-04-02T16:26:26.884Z,101721.50
2023-04-02T16:29:12.444Z,101715.28
2023-04-02T16:31:59.570Z,101723.25
2023-04-02T16:34:56.205Z,101729.91
2023-04-02T16:37:38.327Z,101732.59
2023-04-02T16:40:28.621Z,101722.28
2023-04-02T16:43:20.022Z,101721.03
2023-04-02T16:46:31.797Z,101723.75
2023-04-02T16:49:21.668Z,101722.19
2023-04-02T16:52:14.661Z,101723.84
2023-04-02T16:55:01.613Z,101713.44
2023-04-02T16:58:07.436Z,101726.38
2023-04-02T17:00:42.610Z,101728.63
2023-04-02T17:03:18.545Z,101730.09
2023-04-02T17:05:45.577Z,101721.44
2023-04-02T17:08:42.630Z,101738.13
2023-04-02T17:11:15.574Z,101740.19
2023-04-02T17:13:45.902Z,101744.28
2023-04-02T17:16:22.836Z,101743.63
2023-04-02T17:18:53.656Z,101750.13
2023-04-02T17:21:24.752Z,101750.06
2023-04-02T17:23:56.744Z,101753.28
2023-04-02T17:26:27.786Z,101754.75
2023-04-02T17:28:54.511Z,101757.59
2023-04-02T17:31:26.388Z,101768.81
2023-04-02T17:33:53.358Z,101763.22
2023-04-02T17:36:32.852Z,101769.38
2023-04-02T17:39:21.352Z,101773.59
2023-04-02T17:42:22.369Z,101776.34
2023-04-02T17:44:58.793Z,101779.34
2023-04-02T17:47:43.887Z,101781.84
2023-04-02T17:50:34.362Z,101792.72
2023-04-02T17:53:08.747Z,101798.63
2023-04-02T17:56:26.860Z,101791.13
2023-04-02T17:59:15.363Z,101792.19
2023-04-02T18:01:55.900Z,101803.63
2023-04-02T18:04:42.635Z,101805.66
2023-04-02T18:07:28.022Z,101800.00
2023-04-02T18:10:04.141Z,101803.19
2023-04-02T18:12:49.773Z,101799.50
2023-04-02T18:15:44.272Z,101800.53
2023-04-02T18:18:29.559Z,101806.03
2023-04-02T18:21:12.812Z,101805.03
2023-04-02T18:23:54.388Z,101815.41
2023-04-02T18:26:35.538Z,101813.06
2023-04-02T18:29:08.216Z,101810.56
2023-04-02T18:31:47.696Z,101812.75
2023-04-02T18:35:01.930Z,101808.22
2023-04-02T18:37:38.052Z,101817.06
2023-04-02T18:40:32.937Z,101820.75
2023-04-02T18:43:00.176Z,101819.41
2023-04-02T18:45:45.624Z,101818.22
2023-04-02T18:48:31.465Z,101830.75
2023-04-02T18:51:00.930Z,101827.06
2023-04-02T18:53:29.891Z,101819.84
2023-04-02T18:56:01.956Z,101827.88
2023-04-02T18:58:38.389Z,101827.69
2023-04-02T19:01:07.141Z,101814.63
2023-04-02T19:03:44.810Z,101830.31
2023-04-02T19:06:24.322Z,101824.97
2023-04-02T19:09:01.872Z,101829.69
2023-04-02T19:11:29.673Z,101824.13
2023-04-02T19:14:01.389Z,101831.13
2023-04-02T19:17:01.710Z,101824.78
2023-04-02T19:19:31.144Z,101820.41
2023-04-02T19:22:22.957Z,101820.66
2023-04-02T19:25:00.442Z,101822.84
2023-04-02T19:27:48.042Z,101827.66
2023-04-02T19:30:41.840Z,101823.50
2023-04-02T19:33:15.581Z,101819.31
2023-04-02T19:35:49.259Z,101822.53
2023-04-02T19:38:34.387Z,101825.97
2023-04-02T19:41:16.268Z,101825.22
2023-04-02T19:43:43.337Z,101822.53
2023-04-02T19:46:10.375Z,101820.03
2023-04-02T19:49:03.726Z,101819.72
2023-04-02T19:51:30.684Z,101821.00
2023-04-02T19:53:57.522Z,101823.28
2023-04-02T19:56:24.425Z,101829.31
2023-04-02T19:58:51.209Z,101819.28
2023-04-02T20:01:18.251Z,101819.91
2023-04-02T20:03:45.199Z,101826.03
2023-04-02T20:06:12.310Z,101830.06
2023-04-02T20:11:07.085Z,101816.47
2023-04-02T20:13:34.019Z,101813.19
2023-04-02T20:16:02.382Z,101821.47
2023-04-02T20:18:30.696Z,101819.69
2023-04-02T20:20:57.794Z,101822.63
2023-04-02T20:23:24.941Z,101824.88
2023-04-02T20:25:55.413Z,101820.59
2023-04-02T20:28:23.529Z,101831.19
2023-04-02T20:30:51.001Z,101830.75
2023-04-02T20:33:22.675Z,101826.69
2023-04-02T20:35:50.782Z,101815.97
2023-04-02T20:38:18.964Z,101823.31
2023-04-02T20:40:52.177Z,101827.31
2023-04-02T20:43:19.077Z,101829.19
2023-04-02T20:46:01.124Z,101828.34
2023-04-02T20:48:30.951Z,101831.31
2023-04-02T20:50:58.609Z,101831.31
2023-04-02T20:53:26.504Z,101833.97
2023-04-02T20:55:53.317Z,101832.84
2023-04-02T20:58:20.108Z,101827.69
2023-04-02T21:00:47.008Z,101830.34
2023-04-02T21:03:13.896Z,101829.41
2023-04-02T21:05:47.487Z,101834.94
2023-04-02T21:08:14.498Z,101829.47
2023-04-02T21:10:42.001Z,101834.22
2023-04-02T21:13:08.925Z,101832.28
2023-04-02T21:15:42.984Z,101834.53
2023-04-02T21:18:11.422Z,101833.13
2023-04-02T21:20:38.276Z,101834.28
2023-04-02T21:23:05.110Z,101837.41
2023-04-02T21:25:31.998Z,101835.56
2023-04-02T21:27:58.823Z,101839.22
2023-04-02T21:30:25.712Z,101839.38
2023-04-02T21:32:52.628Z,101829.31
2023-04-02T21:35:19.558Z,101833.53
2023-04-02T21:37:46.407Z,101827.88
2023-04-02T21:40:13.180Z,101829.72
2023-04-02T21:42:40.042Z,101836.13
2023-04-02T21:45:07.322Z,101833.78
2023-04-02T21:47:34.276Z,101831.19
2023-04-02T21:50:01.154Z,101836.06
2023-04-02T21:52:28.040Z,101839.78
2023-04-02T21:54:54.826Z,101835.09
2023-04-02T21:57:21.612Z,101832.41
2023-04-02T21:59:48.436Z,101838.44
2023-04-02T22:02:15.532Z,101833.03
2023-04-02T22:04:42.362Z,101838.72
2023-04-02T22:07:09.281Z,101841.84
2023-04-02T22:09:36.101Z,101843.72
2023-04-02T22:12:03.187Z,101837.84
2023-04-02T22:14:30.071Z,101831.88
2023-04-02T22:16:59.120Z,101831.97
2023-04-02T22:19:26.715Z,101831.84
2023-04-02T22:21:53.734Z,101830.16
2023-04-02T22:24:22.538Z,101828.34
2023-04-02T22:26:49.741Z,101837.44
2023-04-02T22:29:17.132Z,101838.25
2023-04-02T22:31:44.125Z,101841.22
2023-04-02T22:34:11.571Z,101835.03
2023-04-02T22:36:41.446Z,101829.03
2023-04-02T22:39:10.549Z,101829.88
2023-04-02T22:41:37.591Z,101831.84
2023-04-02T22:44:04.654Z,101829.75
2023-04-02T22:46:31.855Z,101830.75
2023-04-02T22:48:58.731Z,101839.38
2023-04-02T22:51:27.820Z,101829.19
2023-04-02T22:53:55.832Z,101836.19
2023-04-02T22:56:32.392Z,101837.16
2023-04-02T22:58:59.458Z,101840.78
2023-04-02T23:01:32.975Z,101842.63
2023-04-02T23:04:00.112Z,101838.59
2023-04-02T23:06:28.368Z,101832.88
2023-04-02T23:08:55.446Z,101837.75
2023-04-02T23:11:24.780Z,101845.50
2023-04-02T23:13:54.240Z,101839.72
2023-04-02T23:16:23.008Z,101835.84
2023-04-02T23:18:50.471Z,101838.50
2023-04-02T23:21:18.538Z,101834.09
2023-04-02T23:23:46.426Z,101841.16
2023-04-02T23:26:26.145Z,101836.94
2023-04-02T23:28:53.119Z,101836.94
2023-04-02T23:31:21.626Z,101828.28
2023-04-02T23:33:49.245Z,101834.19
2023-04-02T23:36:23.281Z,101835.19
2023-04-02T23:38:56.445Z,101839.75
2023-04-02T23:41:25.161Z,101829.31
2023-04-02T23:43:52.184Z,101829.75
2023-04-02T23:46:20.173Z,101834.63
2023-04-02T23:48:47.593Z,101827.34
2023-04-02T23:51:14.554Z,101820.78
2023-04-02T23:53:41.408Z,101825.88
2023-04-02T23:56:08.342Z,101826.59
2023-04-02T23:58:35.388Z,101827.69
